Dwellingup, Australia
Current Conditions -  °F | °C
As of 3:00 AM on Sunday 21 Dec 2014 (Local Time) from YPJT Reporting Station
Clear Clear  
Wind Chill: 61°   Ceiling: Unl
Heat Index: 61°   Visibility: NA
Dew Point: 50°   Wind: 7mph
Humidity: 68%   Direction: 180°S
Pressure: 29.97"   Gusts: NA
Location:  32.71°S, 116.06°E
Report Text: YPJT 201900Z AUTO 18006KT //// // NCD 16/10 Q1015
Loading
Personal Weather Stations






























Interactive Weather Map New forecast layout! Learn more

10-Day Weather Forecast

Advertisements
Track Severe Weather on mobile